createdAt,value
2017-06-01T00:01:13.497Z,34.2
2017-06-01T00:02:13.614Z,34.1
2017-06-01T00:03:13.348Z,34.1
2017-06-01T00:04:13.355Z,34
2017-06-01T00:05:13.226Z,34.2
2017-06-01T00:06:13.164Z,34.68
2017-06-01T00:07:13.102Z,34.1
2017-06-01T00:08:13.043Z,34.68
2017-06-01T00:09:12.675Z,34.87
2017-06-01T00:10:12.623Z,34.1
2017-06-01T00:11:12.855Z,34
2017-06-01T00:12:12.489Z,34.68
2017-06-01T00:13:12.434Z,34.2
2017-06-01T00:14:12.385Z,34.78
2017-06-01T00:15:12.609Z,34.29
2017-06-01T00:16:12.543Z,34.78
2017-06-01T00:17:12.182Z,34.1
2017-06-01T00:18:12.120Z,34.1
2017-06-01T00:19:12.358Z,34
2017-06-01T00:20:12.301Z,34.78
2017-06-01T00:21:12.236Z,34.29
2017-06-01T00:22:12.171Z,34.78
2017-06-01T00:23:12.112Z,34.1
2017-06-01T00:24:12.064Z,34.78
2017-06-01T00:25:12.064Z,34.78
2017-06-01T00:26:11.931Z,34.29
2017-06-01T00:27:11.866Z,34.68
2017-06-01T00:28:11.806Z,34.68
2017-06-01T00:29:11.739Z,34.2
2017-06-01T00:30:11.681Z,34.68
2017-06-01T00:31:11.615Z,34.2
2017-06-01T00:32:11.654Z,34.29
2017-06-01T00:33:11.494Z,34.2
2017-06-01T00:34:11.432Z,34.2
2017-06-01T00:35:11.375Z,34.58
2017-06-01T00:36:11.309Z,34.68
2017-06-01T00:37:11.252Z,34.29
2017-06-01T00:38:11.183Z,34.29
2017-06-01T00:39:11.121Z,34.2
2017-06-01T00:40:11.060Z,34.68
2017-06-01T00:41:10.999Z,34.29
2017-06-01T00:42:10.940Z,34.2
2017-06-01T00:43:10.874Z,34.78
2017-06-01T00:44:10.814Z,34.48
2017-06-01T00:45:10.750Z,34.2
2017-06-01T00:46:10.387Z,34.29
2017-06-01T00:47:10.631Z,34.39
2017-06-01T00:48:10.564Z,34.58
2017-06-01T00:49:10.535Z,34.58
2017-06-01T00:50:10.142Z,34.48
2017-06-01T00:51:10.082Z,34.29
2017-06-01T00:52:10.015Z,33.91
2017-06-01T00:53:10.255Z,34.48
2017-06-01T00:54:10.093Z,34.39
2017-06-01T00:55:10.132Z,34.29
2017-06-01T00:56:09.767Z,34.48
2017-06-01T00:57:09.706Z,34.68
2017-06-01T00:58:09.645Z,34
2017-06-01T00:59:09.584Z,34.78
2017-06-01T01:00:09.823Z,34.39
2017-06-01T01:01:09.762Z,34.39
2017-06-01T01:02:09.398Z,34.68
2017-06-01T01:03:09.635Z,34
2017-06-01T01:04:09.574Z,34.1
2017-06-01T01:05:09.522Z,34.2
2017-06-01T01:06:09.150Z,34.2
2017-06-01T01:07:09.390Z,34.39
2017-06-01T01:08:09.329Z,34.66
2017-06-01T01:09:09.269Z,34.1
2017-06-01T01:10:09.249Z,34.29
2017-06-01T01:11:09.141Z,34.58
2017-06-01T01:12:08.778Z,34.68
2017-06-01T01:13:09.018Z,34.78
2017-06-01T01:14:08.658Z,34.68
2017-06-01T01:15:08.592Z,34.29
2017-06-01T01:16:08.834Z,34.87
2017-06-01T01:17:08.770Z,34.39
2017-06-01T01:18:08.708Z,34.68
2017-06-01T01:19:08.650Z,34.29
2017-06-01T01:20:08.287Z,34.78
2017-06-01T01:21:08.526Z,34.48
2017-06-01T01:22:08.461Z,34.48
2017-06-01T01:23:08.412Z,34.97
2017-06-01T01:24:08.343Z,34.48
2017-06-01T01:25:08.278Z,34.58
2017-06-01T01:26:08.215Z,34.29
2017-06-01T01:27:08.156Z,35.06
2017-06-01T01:28:08.089Z,34.87
2017-06-01T01:29:07.726Z,34.48
2017-06-01T01:30:07.966Z,34.48
2017-06-01T01:31:07.905Z,34.87
2017-06-01T01:32:07.540Z,34.87
2017-06-01T01:33:07.782Z,34.58
2017-06-01T01:34:07.417Z,34.97
2017-06-01T01:35:07.725Z,34.68
2017-06-01T01:36:07.596Z,34.58
2017-06-01T01:37:07.533Z,34.68
2017-06-01T01:38:07.474Z,34.68
2017-06-01T01:39:07.411Z,34.97
2017-06-01T01:40:07.048Z,34.97
2017-06-01T01:41:07.287Z,34.78
2017-06-01T01:42:06.925Z,34.76
2017-06-01T01:43:07.171Z,34.97
2017-06-01T01:44:07.101Z,34.78
2017-06-01T01:45:07.039Z,34.78
2017-06-01T01:46:06.977Z,35.06
2017-06-01T01:47:06.925Z,34.97
2017-06-01T01:48:06.858Z,34.66
2017-06-01T01:49:06.793Z,34.97
2017-06-01T01:50:06.444Z,35.06
2017-06-01T01:51:06.668Z,35.05
2017-06-01T01:52:06.303Z,34.95
2017-06-01T01:53:06.748Z,35.16
2017-06-01T01:54:06.482Z,35.05
2017-06-01T01:55:06.122Z,35.94
2017-06-01T01:56:06.357Z,35.05
2017-06-01T01:57:06.296Z,35.72
2017-06-01T01:58:06.234Z,34.95
2017-06-01T01:59:05.873Z,35.36
2017-06-01T02:00:06.113Z,35.24
2017-06-01T02:01:05.750Z,35.36
2017-06-01T02:02:05.987Z,35.63
2017-06-01T02:03:05.926Z,35.53
2017-06-01T02:04:05.867Z,35.53
2017-06-01T02:05:05.805Z,35.55
2017-06-01T02:06:05.744Z,35.63
2017-06-01T02:07:05.376Z,35.64
2017-06-01T02:08:05.638Z,35.72
2017-06-01T02:09:05.555Z,35.53
2017-06-01T02:10:05.209Z,35.53
2017-06-01T02:11:05.434Z,35.34
2017-06-01T02:12:05.367Z,35.34
2017-06-01T02:13:05.306Z,35.55
2017-06-01T02:14:05.249Z,35.24
2017-06-01T02:15:04.881Z,35.64
2017-06-01T02:16:05.122Z,35.53
2017-06-01T02:17:05.059Z,35.34
2017-06-01T02:18:04.695Z,35.53
2017-06-01T02:19:04.935Z,35.63
2017-06-01T02:20:04.875Z,35.74
2017-06-01T02:21:04.817Z,35.53
2017-06-01T02:22:04.750Z,35.84
2017-06-01T02:23:04.686Z,35.63
2017-06-01T02:24:04.644Z,35.53
2017-06-01T02:25:04.265Z,35.44
2017-06-01T02:26:04.504Z,35.63
2017-06-01T02:27:04.440Z,35.53
2017-06-01T02:28:04.383Z,35.53
2017-06-01T02:29:04.327Z,35.53
2017-06-01T02:30:04.286Z,35.53
2017-06-01T02:31:03.901Z,35.63
2017-06-01T02:32:04.153Z,35.63
2017-06-01T02:33:04.070Z,35.53
2017-06-01T02:34:04.008Z,35.63
2017-06-01T02:35:03.955Z,35.45
2017-06-01T02:36:03.900Z,35.45
2017-06-01T02:37:03.823Z,35.55
2017-06-01T02:38:03.760Z,35.63
2017-06-01T02:39:03.699Z,35.53
2017-06-01T02:40:03.638Z,35.63
2017-06-01T02:41:03.577Z,35.63
2017-06-01T02:42:03.524Z,35.55
2017-06-01T02:43:03.450Z,35.63
2017-06-01T02:44:03.389Z,36.11
2017-06-01T02:45:03.330Z,35.53
2017-06-01T02:46:03.330Z,35.55
2017-06-01T02:47:03.206Z,35.63
2017-06-01T02:48:03.139Z,35.63
2017-06-01T02:49:03.082Z,35.45
2017-06-01T02:50:03.047Z,35.53
2017-06-01T02:51:02.954Z,35.45
2017-06-01T02:52:02.896Z,35.44
2017-06-01T02:53:02.834Z,35.14
2017-06-01T02:54:02.776Z,35.44
2017-06-01T02:55:02.708Z,36.11
2017-06-01T02:56:02.654Z,35.34
2017-06-01T02:57:02.584Z,35.92
2017-06-01T02:58:02.532Z,35.44
2017-06-01T02:59:02.463Z,35.24
2017-06-01T03:00:02.409Z,35.34
2017-06-01T03:01:02.337Z,35.44
2017-06-01T03:02:02.288Z,35.53
2017-06-01T03:03:01.907Z,35.64
2017-06-01T03:04:01.848Z,35.63
2017-06-01T03:05:01.886Z,35.53
2017-06-01T03:06:01.725Z,35.24
2017-06-01T03:07:01.980Z,35.24
2017-06-01T03:08:01.600Z,35.44
2017-06-01T03:09:01.837Z,35.26
2017-06-01T03:10:01.776Z,35.44
2017-06-01T03:11:01.736Z,35.24
2017-06-01T03:12:01.355Z,35.45
2017-06-01T03:13:01.591Z,35.45
2017-06-01T03:14:01.529Z,35.44
2017-06-01T03:15:01.471Z,35.44
2017-06-01T03:16:01.405Z,35.34
2017-06-01T03:17:01.347Z,35.44
2017-06-01T03:18:01.283Z,35.34
2017-06-01T03:19:01.221Z,35.44
2017-06-01T03:20:00.857Z,35.34
2017-06-01T03:21:00.826Z,35.34
2017-06-01T03:22:00.733Z,35.34
2017-06-01T03:23:00.672Z,35.72
2017-06-01T03:24:00.914Z,35.53
2017-06-01T03:25:00.847Z,35.34
2017-06-01T03:26:00.801Z,35.72
2017-06-01T03:27:00.724Z,35.34
2017-06-01T03:28:00.662Z,35.24
2017-06-01T03:29:00.601Z,35.44
2017-06-01T03:30:00.570Z,35.34
2017-06-01T03:31:00.191Z,35.24
2017-06-01T03:32:00.112Z,35.34
2017-06-01T03:33:00.364Z,35.34
2017-06-01T03:33:59.994Z,35.24
2017-06-01T03:35:00.338Z,35.26
2017-06-01T03:35:59.863Z,35.34
2017-06-01T03:36:59.806Z,35.24
2017-06-01T03:37:59.751Z,35.24
2017-06-01T03:38:59.980Z,35.34
2017-06-01T03:39:59.918Z,35.34
2017-06-01T03:40:59.857Z,35.36
2017-06-01T03:41:59.794Z,35.44
2017-06-01T03:42:59.733Z,35.34
2017-06-01T03:43:59.669Z,35.34
2017-06-01T03:44:59.610Z,35.34
2017-06-01T03:45:59.547Z,35.34
2017-06-01T03:46:59.484Z,35.44
2017-06-01T03:47:59.420Z,35.34
2017-06-01T03:48:59.360Z,35.24
2017-06-01T03:49:59.299Z,35.44
2017-06-01T03:50:59.238Z,35.34
2017-06-01T03:51:59.175Z,35.44
2017-06-01T03:52:59.112Z,35.34
2017-06-01T03:53:59.050Z,35.24
2017-06-01T03:54:58.989Z,35.24
2017-06-01T03:55:58.923Z,35.53
2017-06-01T03:56:58.863Z,35.63
2017-06-01T03:57:58.808Z,35.24
2017-06-01T03:58:58.739Z,35.44
2017-06-01T03:59:58.694Z,35.63
2017-06-01T04:00:58.619Z,35.34
2017-06-01T04:01:58.251Z,35.24
2017-06-01T04:02:58.491Z,35.44
2017-06-01T04:03:58.429Z,35.24
2017-06-01T04:04:58.367Z,35.24
2017-06-01T04:05:58.310Z,35.34
2017-06-01T04:06:58.247Z,35.34
2017-06-01T04:07:58.183Z,35.34
2017-06-01T04:08:58.124Z,35.34
2017-06-01T04:09:58.065Z,35.63
2017-06-01T04:10:58.011Z,35.24
2017-06-01T04:11:57.635Z,35.63
2017-06-01T04:12:57.573Z,35.53
2017-06-01T04:13:57.809Z,35.63
2017-06-01T04:14:57.753Z,35.63
2017-06-01T04:15:57.686Z,35.24
2017-06-01T04:16:57.625Z,35.34
2017-06-01T04:17:57.564Z,35.24
2017-06-01T04:18:57.502Z,35.34
2017-06-01T04:19:57.438Z,35.82
2017-06-01T04:20:57.078Z,35.44
2017-06-01T04:21:57.314Z,35.24
2017-06-01T04:22:57.252Z,35.14
2017-06-01T04:23:57.187Z,35.34
2017-06-01T04:24:57.126Z,35.53
2017-06-01T04:25:57.066Z,35.53
2017-06-01T04:26:57.001Z,35.72
2017-06-01T04:27:56.940Z,35.44
2017-06-01T04:28:56.879Z,35.53
2017-06-01T04:29:56.815Z,34.76
2017-06-01T04:30:56.757Z,34.56
2017-06-01T04:31:56.690Z,34.76
2017-06-01T04:32:56.629Z,34.66
2017-06-01T04:33:56.587Z,34.95
2017-06-01T04:34:56.506Z,34.66
2017-06-01T04:35:56.445Z,34.66
2017-06-01T04:36:56.384Z,34.66
2017-06-01T04:37:56.348Z,34.76
2017-06-01T04:38:56.257Z,34.76
2017-06-01T04:39:56.194Z,34.66
2017-06-01T04:40:56.135Z,34.38
2017-06-01T04:41:56.070Z,34.76
2017-06-01T04:42:56.007Z,34.47
2017-06-01T04:43:55.946Z,34.38
2017-06-01T04:44:55.886Z,34.28
2017-06-01T04:45:55.829Z,34.47
2017-06-01T04:46:55.758Z,34.76
2017-06-01T04:47:55.697Z,35.05
2017-06-01T04:48:55.741Z,34.18
2017-06-01T04:49:55.573Z,34.66
2017-06-01T04:50:55.519Z,34.66
2017-06-01T04:51:55.451Z,34.76
2017-06-01T04:52:55.386Z,34.28
2017-06-01T04:53:55.324Z,34.86
2017-06-01T04:54:55.261Z,34.66
2017-06-01T04:55:55.270Z,34.18
2017-06-01T04:56:55.136Z,33.89
2017-06-01T04:57:55.074Z,34.66
2017-06-01T04:58:55.012Z,34.38
2017-06-01T04:59:54.994Z,34.47
2017-06-01T05:00:54.620Z,34.56
2017-06-01T05:01:54.824Z,34.56
2017-06-01T05:02:54.760Z,34.76
2017-06-01T05:03:54.404Z,34.08
2017-06-01T05:04:54.353Z,34.08
2017-06-01T05:05:54.377Z,34.28
2017-06-01T05:06:54.512Z,34.56
2017-06-01T05:07:54.450Z,34.18
2017-06-01T05:08:54.387Z,34.86
2017-06-01T05:09:54.026Z,34.66
2017-06-01T05:10:53.958Z,34.18
2017-06-01T05:11:54.201Z,34.86
2017-06-01T05:12:54.135Z,34.28
2017-06-01T05:13:53.775Z,34.28
2017-06-01T05:14:53.710Z,34.38
2017-06-01T05:15:53.982Z,34.18
2017-06-01T05:16:53.890Z,34.28
2017-06-01T05:17:53.522Z,34.26
2017-06-01T05:18:53.459Z,34.47
2017-06-01T05:19:53.697Z,34.28
2017-06-01T05:20:53.707Z,34.47
2017-06-01T05:21:53.592Z,34.18
2017-06-01T05:22:53.511Z,34.56
2017-06-01T05:23:53.449Z,34.56
2017-06-01T05:24:53.390Z,34.18
2017-06-01T05:25:53.324Z,34.56
2017-06-01T05:26:53.263Z,34.66
2017-06-01T05:27:52.899Z,34.47
2017-06-01T05:28:53.138Z,34.45
2017-06-01T05:29:53.074Z,33.8
2017-06-01T05:30:52.712Z,33.78
2017-06-01T05:31:52.951Z,34.16
2017-06-01T05:32:52.890Z,34.28
2017-06-01T05:33:52.823Z,33.98
2017-06-01T05:34:52.761Z,34.26
2017-06-01T05:35:52.700Z,33.87
2017-06-01T05:36:52.645Z,33.87
2017-06-01T05:37:52.574Z,33.6
2017-06-01T05:38:52.511Z,33.78
2017-06-01T05:39:52.465Z,33.78
2017-06-01T05:40:52.388Z,34.06
2017-06-01T05:41:52.323Z,33.97
2017-06-01T05:42:52.276Z,34.16
2017-06-01T05:43:52.199Z,33.97
2017-06-01T05:44:52.161Z,33.89
2017-06-01T05:45:52.142Z,33.78
2017-06-01T05:46:52.011Z,33.22
2017-06-01T05:47:51.955Z,33.78
2017-06-01T05:48:51.885Z,34.06
2017-06-01T05:49:51.821Z,33.97
2017-06-01T05:50:51.761Z,33.97
2017-06-01T05:51:51.698Z,33.68
2017-06-01T05:52:51.635Z,34.06
2017-06-01T05:53:51.574Z,33.87
2017-06-01T05:54:51.507Z,33.78
2017-06-01T05:55:51.449Z,33.87
2017-06-01T05:56:51.398Z,33.78
2017-06-01T05:57:51.320Z,33.97
2017-06-01T05:58:51.255Z,33.87
2017-06-01T05:59:51.197Z,33.87
2017-06-01T06:00:51.133Z,33.87
2017-06-01T06:01:51.071Z,33.87
2017-06-01T06:02:51.006Z,33.39
2017-06-01T06:03:50.952Z,34.16
2017-06-01T06:04:50.881Z,33.87
2017-06-01T06:05:50.816Z,33.78
2017-06-01T06:06:50.755Z,33.39
2017-06-01T06:07:50.693Z,33.78
2017-06-01T06:08:50.629Z,33.87
2017-06-01T06:09:50.569Z,33.87
2017-06-01T06:10:50.502Z,33.78
2017-06-01T06:11:50.439Z,33.78
2017-06-01T06:12:50.378Z,33.68
2017-06-01T06:13:50.315Z,33.87
2017-06-01T06:14:50.254Z,33.87
2017-06-01T06:15:50.193Z,33.68
2017-06-01T06:16:50.129Z,33.97
2017-06-01T06:17:49.764Z,33.39
2017-06-01T06:18:50.083Z,33.78
2017-06-01T06:19:49.941Z,33.1
2017-06-01T06:20:49.876Z,33.78
2017-06-01T06:21:49.815Z,33.48
2017-06-01T06:22:49.752Z,33.2
2017-06-01T06:23:49.689Z,33.39
2017-06-01T06:24:49.642Z,33.29
2017-06-01T06:25:49.567Z,33.68
2017-06-01T06:26:49.198Z,33.58
2017-06-01T06:27:49.435Z,33.78
2017-06-01T06:28:49.373Z,33.68
2017-06-01T06:29:49.315Z,33
2017-06-01T06:30:49.257Z,33.78
2017-06-01T06:31:49.186Z,33.68
2017-06-01T06:32:49.124Z,33.97
2017-06-01T06:33:49.061Z,34.06
2017-06-01T06:34:48.997Z,33.29
2017-06-01T06:35:48.936Z,33.48
2017-06-01T06:36:48.875Z,33.29
2017-06-01T06:37:48.810Z,33.39
2017-06-01T06:38:48.747Z,33.68
2017-06-01T06:39:48.685Z,33.48
2017-06-01T06:40:48.319Z,33.48
2017-06-01T06:41:48.556Z,33.87
2017-06-01T06:42:48.498Z,33.87
2017-06-01T06:43:48.441Z,33.87
2017-06-01T06:44:48.068Z,33.68
2017-06-01T06:45:48.389Z,33.2
2017-06-01T06:46:48.245Z,34.16
2017-06-01T06:47:48.179Z,33.97
2017-06-01T06:48:48.119Z,33.87
2017-06-01T06:49:47.753Z,34.26
2017-06-01T06:50:47.691Z,35.03
2017-06-01T06:51:47.929Z,34.26
2017-06-01T06:52:47.867Z,34.74
2017-06-01T06:53:47.802Z,34.45
2017-06-01T06:54:47.742Z,34.26
2017-06-01T06:55:47.682Z,34.26
2017-06-01T06:56:47.617Z,34.45
2017-06-01T06:57:47.556Z,34.64
2017-06-01T06:58:47.565Z,34.64
2017-06-01T06:59:47.439Z,34.45
2017-06-01T07:00:47.365Z,34.64
2017-06-01T07:01:47.327Z,34.06
2017-06-01T07:02:47.238Z,33.78
2017-06-01T07:03:47.175Z,34.45
2017-06-01T07:04:47.120Z,34.45
2017-06-01T07:05:47.050Z,34.16
2017-06-01T07:06:46.987Z,34.45
2017-06-01T07:07:46.924Z,34.16
2017-06-01T07:08:46.866Z,34.26
2017-06-01T07:09:46.799Z,34.36
2017-06-01T07:10:46.741Z,34.45
2017-06-01T07:11:46.673Z,34.26
2017-06-01T07:12:46.309Z,34.36
2017-06-01T07:13:46.547Z,33.58
2017-06-01T07:14:46.482Z,34.06
2017-06-01T07:16:01.020Z,34.55
2017-06-01T07:16:46.363Z,34.16
2017-06-01T07:17:46.297Z,33.78
2017-06-01T07:18:46.233Z,34.16
2017-06-01T07:19:46.171Z,33.78
2017-06-01T07:20:46.108Z,34.06
2017-06-01T07:21:45.743Z,34.06
2017-06-01T07:22:45.980Z,33.29
2017-06-01T07:23:45.916Z,33.78
2017-06-01T07:24:45.859Z,33.78
2017-06-01T07:25:45.791Z,33.97
2017-06-01T07:26:45.730Z,33.78
2017-06-01T07:27:45.674Z,33.87
2017-06-01T07:28:45.607Z,33.68
2017-06-01T07:29:45.276Z,33.39
2017-06-01T07:31:45.414Z,34.06
2017-06-01T07:32:45.357Z,33.48
2017-06-01T07:33:45.289Z,34.06
2017-06-01T07:34:45.232Z,33.87
2017-06-01T07:35:45.235Z,33.87
2017-06-01T07:36:45.143Z,33.68
2017-06-01T07:37:45.038Z,33.87
2017-06-01T07:38:44.975Z,33.48
2017-06-01T07:39:44.911Z,33.87
2017-06-01T07:40:44.849Z,33.87
2017-06-01T07:41:44.784Z,33.87
2017-06-01T07:42:44.725Z,33.97
2017-06-01T07:43:44.658Z,33.68
2017-06-01T07:44:44.596Z,33.68
2017-06-01T07:45:44.532Z,33.48
2017-06-01T07:46:44.167Z,33.78
2017-06-01T07:47:44.145Z,33.68
2017-06-01T07:48:44.344Z,33.29
2017-06-01T07:49:44.282Z,33.48
2017-06-01T07:50:44.226Z,33.58
2017-06-01T07:51:44.223Z,33.2
2017-06-01T07:52:44.093Z,33.87
2017-06-01T07:53:43.728Z,33.87
2017-06-01T07:54:43.975Z,33.48
2017-06-01T07:55:43.906Z,33.58
2017-06-01T07:56:43.857Z,33.87
2017-06-01T07:57:43.797Z,33.48
2017-06-01T07:58:43.732Z,33.87
2017-06-01T07:59:43.653Z,33.48
2017-06-01T08:00:43.601Z,34.06
2017-06-01T08:01:43.528Z,33.39
2017-06-01T08:02:43.466Z,33.68
2017-06-01T08:03:43.118Z,33.97
2017-06-01T08:04:43.338Z,33.97
2017-06-01T08:05:43.276Z,33.39
2017-06-01T08:06:43.210Z,33.48
2017-06-01T08:07:42.875Z,33.48
2017-06-01T08:08:43.086Z,33.58
2017-06-01T08:09:43.038Z,34.06
2017-06-01T08:10:42.661Z,33.48
2017-06-01T08:11:42.902Z,33.48
2017-06-01T08:12:42.834Z,34.16
2017-06-01T08:13:42.803Z,33.87
2017-06-01T08:14:42.711Z,33.68
2017-06-01T08:15:42.647Z,33.68
2017-06-01T08:16:42.292Z,33.48
2017-06-01T08:17:42.218Z,33.29
2017-06-01T08:18:42.475Z,33.87
2017-06-01T08:19:42.397Z,33.87
2017-06-01T08:20:42.332Z,33.68
2017-06-01T08:21:41.969Z,33.68
2017-06-01T08:22:41.906Z,33.87
2017-06-01T08:23:42.146Z,33.48
2017-06-01T08:24:42.080Z,33.5
2017-06-01T08:25:42.022Z,33.68
2017-06-01T08:26:41.955Z,33.5
2017-06-01T08:27:41.894Z,33.87
2017-06-01T08:28:41.529Z,34.38
2017-06-01T08:29:41.768Z,34.38
2017-06-01T08:30:41.708Z,34.76
2017-06-01T08:31:41.641Z,34.66
2017-06-01T08:32:41.582Z,34.66
2017-06-01T08:33:41.523Z,34.56
2017-06-01T08:34:41.458Z,34.95
2017-06-01T08:35:41.394Z,34.18
2017-06-01T08:36:41.337Z,34.38
2017-06-01T08:37:41.269Z,33.7
2017-06-01T08:38:41.206Z,34.56
2017-06-01T08:39:41.144Z,34.95
2017-06-01T08:40:41.085Z,33.4
2017-06-01T08:41:41.027Z,34.08
2017-06-01T08:42:40.955Z,33.89
2017-06-01T08:43:40.903Z,33.98
2017-06-01T08:44:40.827Z,33.89
2017-06-01T08:45:40.768Z,33.89
2017-06-01T08:46:40.710Z,33.89
2017-06-01T08:47:40.642Z,34.08
2017-06-01T08:48:40.636Z,34.18
2017-06-01T08:49:40.533Z,33.89
2017-06-01T08:50:40.458Z,33.8
2017-06-01T08:51:40.393Z,33.98
2017-06-01T08:52:40.337Z,33.8
2017-06-01T08:53:40.269Z,33.89
2017-06-01T08:54:40.210Z,33.7
2017-06-01T08:55:40.148Z,33.98
2017-06-01T08:56:40.083Z,33.98
2017-06-01T08:57:40.022Z,33.4
2017-06-01T08:58:39.954Z,33.89
2017-06-01T08:59:39.893Z,33.89
2017-06-01T09:00:39.829Z,33.89
2017-06-01T09:01:39.769Z,34.28
2017-06-01T09:02:39.770Z,34.76
2017-06-01T09:03:39.643Z,34.47
2017-06-01T09:04:39.587Z,34.95
2017-06-01T09:05:39.517Z,34.76
2017-06-01T09:06:39.680Z,35.14
2017-06-01T09:07:39.395Z,34.76
2017-06-01T09:08:39.331Z,35.34
2017-06-01T09:09:38.966Z,35.63
2017-06-01T09:10:39.205Z,36.32
2017-06-01T09:11:39.143Z,37.65
2017-06-01T09:12:39.083Z,37.46
2017-06-01T09:13:39.018Z,37.77
2017-06-01T09:14:38.971Z,37.58
2017-06-01T09:15:38.893Z,38.06
2017-06-01T09:16:38.831Z,38.25
2017-06-01T09:17:38.772Z,38.45
2017-06-01T09:18:38.853Z,38.25
2017-06-01T09:19:38.667Z,38.25
2017-06-01T09:20:38.583Z,38.83
2017-06-01T09:21:38.552Z,38.93
2017-06-01T09:22:38.458Z,38.74
2017-06-01T09:23:38.397Z,38.83
2017-06-01T09:24:38.343Z,38.35
2017-06-01T09:25:38.276Z,39.61
2017-06-01T09:26:38.221Z,39.61
2017-06-01T09:27:38.156Z,39.61
2017-06-01T09:28:38.096Z,39.51
2017-06-01T09:29:38.024Z,39.61
2017-06-01T09:30:37.964Z,40.09
2017-06-01T09:31:37.920Z,40.38
2017-06-01T09:32:37.849Z,40.57
2017-06-01T09:33:37.835Z,39.61
2017-06-01T09:34:37.718Z,40.19
2017-06-01T09:35:37.652Z,38.74
2017-06-01T09:36:37.590Z,39.24
2017-06-01T09:37:37.529Z,39.04
2017-06-01T09:38:37.488Z,39.51
2017-06-01T09:39:37.406Z,39.34
2017-06-01T09:40:37.342Z,39.34
2017-06-01T09:41:37.280Z,39.62
2017-06-01T09:42:36.916Z,38.37
2017-06-01T09:43:37.165Z,38.18
2017-06-01T09:44:37.018Z,39.04
2017-06-01T09:45:37.031Z,37.7
2017-06-01T09:46:36.674Z,37.67
2017-06-01T09:47:36.935Z,37.98
2017-06-01T09:48:36.846Z,37.79
2017-06-01T09:49:36.786Z,37.4
2017-06-01T09:50:36.721Z,37.79
2017-06-01T09:51:36.661Z,37.6
2017-06-01T09:52:36.708Z,38.08
2017-06-01T09:53:36.546Z,37.79
2017-06-01T09:54:36.475Z,36.15
2017-06-01T09:55:36.413Z,36.05
2017-06-01T09:56:36.363Z,36.15
2017-06-01T09:57:35.994Z,34.31
2017-06-01T09:58:36.227Z,33.63
2017-06-01T09:59:36.167Z,32.47
2017-06-01T10:00:36.108Z,32.38
2017-06-01T10:01:36.039Z,31.89
2017-06-01T10:02:35.785Z,31.8
2017-06-01T10:03:35.626Z,31.49
2017-06-01T10:04:35.855Z,31.3
2017-06-01T10:05:35.811Z,31.3
2017-06-01T10:06:35.733Z,31.49
2017-06-01T10:07:35.671Z,31.3
2017-06-01T10:08:35.611Z,30.91
2017-06-01T10:09:35.586Z,31.01
2017-06-01T10:10:35.747Z,31.01
2017-06-01T10:11:35.503Z,30.83
2017-06-01T10:12:35.359Z,30.62
2017-06-01T10:13:35.307Z,31.1
2017-06-01T10:14:35.453Z,30.82
2017-06-01T10:15:35.174Z,30.54
2017-06-01T10:16:35.110Z,30.62
2017-06-01T10:17:35.049Z,30.54
2017-06-01T10:18:34.999Z,30.44
2017-06-01T10:19:34.924Z,29.94
2017-06-01T10:20:34.865Z,30.14
2017-06-01T10:21:34.800Z,30.15
2017-06-01T10:22:34.440Z,30.25
2017-06-01T10:23:34.676Z,30.15
2017-06-01T10:24:34.315Z,30.05
2017-06-01T10:25:34.259Z,30.54
2017-06-01T10:26:34.495Z,30.54
2017-06-01T10:27:34.429Z,30.63
2017-06-01T10:28:34.367Z,30.73
2017-06-01T10:29:34.303Z,30.83
2017-06-01T10:30:34.245Z,31.31
2017-06-01T10:31:34.199Z,31.31
2017-06-01T10:32:34.120Z,31.8
2017-06-01T10:33:33.755Z,32.18
2017-06-01T10:34:34.054Z,31.99
2017-06-01T10:35:34.012Z,31.99
2017-06-01T10:36:33.873Z,31.6
2017-06-01T10:37:33.822Z,32.47
2017-06-01T10:38:33.448Z,32.47
2017-06-01T10:39:33.694Z,32.38
2017-06-01T10:40:33.331Z,32.86
2017-06-01T10:41:33.258Z,33.25
2017-06-01T10:42:33.499Z,33.05
2017-06-01T10:43:33.437Z,32.76
2017-06-01T10:44:33.374Z,32.57
2017-06-01T10:45:33.312Z,32.57
2017-06-01T10:46:32.950Z,32.47
2017-06-01T10:47:33.191Z,31.6
2017-06-01T10:48:33.176Z,32.09
2017-06-01T10:49:33.072Z,31.8
2017-06-01T10:50:32.704Z,31.41
2017-06-01T10:51:32.940Z,31.12
2017-06-01T10:52:32.878Z,30.73
2017-06-01T10:53:32.822Z,30.73
2017-06-01T10:54:32.762Z,31.02
2017-06-01T10:55:32.694Z,31.41
2017-06-01T10:56:32.631Z,31.41
2017-06-01T10:57:32.574Z,31.41
2017-06-01T10:58:32.521Z,31.31
2017-06-01T10:59:32.449Z,31.31
2017-06-01T11:00:32.384Z,31.51
2017-06-01T11:01:32.323Z,31.51
2017-06-01T11:02:31.973Z,31.31
2017-06-01T11:03:32.279Z,31.41
2017-06-01T11:04:32.149Z,31.51
2017-06-01T11:05:32.083Z,31.31
2017-06-01T11:06:32.015Z,31.02
2017-06-01T11:07:32.154Z,30.73
2017-06-01T11:08:31.890Z,30.15
2017-06-01T11:09:31.834Z,30.25
2017-06-01T11:10:31.770Z,29.86
2017-06-01T11:11:31.406Z,29.77
2017-06-01T11:12:31.654Z,29.75
2017-06-01T11:13:31.292Z,29.27
2017-06-01T11:14:31.518Z,29.08
2017-06-01T11:15:31.463Z,29.08
2017-06-01T11:16:31.396Z,29.17
2017-06-01T11:17:31.349Z,28.78
2017-06-01T11:18:31.271Z,28.69
2017-06-01T11:19:31.214Z,28.69
2017-06-01T11:20:30.856Z,28.5
2017-06-01T11:21:31.128Z,28.5
2017-06-01T11:22:31.029Z,28.5
2017-06-01T11:23:30.959Z,28.78
2017-06-01T11:24:30.897Z,28.69
2017-06-01T11:25:30.838Z,28.59
2017-06-01T11:26:30.480Z,28.4
2017-06-01T11:27:30.408Z,28.02
2017-06-01T11:28:30.349Z,28.02
2017-06-01T11:29:30.587Z,28.3
2017-06-01T11:30:30.525Z,28.2
2017-06-01T11:31:30.474Z,28.3
2017-06-01T11:32:30.400Z,27.72
2017-06-01T11:33:30.038Z,27.72
2017-06-01T11:34:30.274Z,27.44
2017-06-01T11:35:30.229Z,27.34
2017-06-01T11:36:30.160Z,27.62
2017-06-01T11:37:29.790Z,27.24
2017-06-01T11:38:30.030Z,27.14
2017-06-01T11:39:29.972Z,27.34
2017-06-01T11:40:29.604Z,27.24
2017-06-01T11:41:29.853Z,26.95
2017-06-01T11:42:29.781Z,27.14
2017-06-01T11:43:29.718Z,27.44
2017-06-01T11:44:29.658Z,27.34
2017-06-01T11:45:29.295Z,27.53
2017-06-01T11:46:29.543Z,27.24
2017-06-01T11:47:29.167Z,27.04
2017-06-01T11:48:29.422Z,27.34
2017-06-01T11:49:29.343Z,27.34
2017-06-01T11:50:29.234Z,27.24
2017-06-01T11:51:28.929Z,27.34
2017-06-01T11:52:29.163Z,27.62
2017-06-01T11:53:29.098Z,27.34
2017-06-01T11:54:29.035Z,27.62
2017-06-01T11:55:28.977Z,27.53
2017-06-01T11:56:28.924Z,27.44
2017-06-01T11:57:28.853Z,27.72
2017-06-01T11:58:28.790Z,27.72
2017-06-01T11:59:28.725Z,27.82
2017-06-01T12:00:28.359Z,27.62
2017-06-01T12:01:28.300Z,27.24
2017-06-01T12:02:28.537Z,27.72
2017-06-01T12:03:28.176Z,27.72
2017-06-01T12:04:28.112Z,27.82
2017-06-01T12:05:28.377Z,27.53
2017-06-01T12:06:27.990Z,27.14
2017-06-01T12:07:27.925Z,27.34
2017-06-01T12:08:28.166Z,27.34
2017-06-01T12:09:28.127Z,27.24
2017-06-01T12:10:27.738Z,27.44
2017-06-01T12:11:27.681Z,27.44
2017-06-01T12:12:27.919Z,27.34
2017-06-01T12:13:27.553Z,27.24
2017-06-01T12:14:27.792Z,27.44
2017-06-01T12:15:27.732Z,27.24
2017-06-01T12:16:27.671Z,27.82
2017-06-01T12:17:27.605Z,27.62
2017-06-01T12:18:27.552Z,27.62
2017-06-01T12:19:27.541Z,27.82
2017-06-01T12:20:27.433Z,27.34
2017-06-01T12:21:27.357Z,27.53
2017-06-01T12:22:27.300Z,27.72
2017-06-01T12:23:27.234Z,27.72
2017-06-01T12:24:27.175Z,27.92
2017-06-01T12:25:27.108Z,27.62
2017-06-01T12:26:27.393Z,28.69
2017-06-01T12:27:26.992Z,28.5
2017-06-01T12:28:26.931Z,28.2
2017-06-01T12:29:26.559Z,28.59
2017-06-01T12:30:26.499Z,28.02
2017-06-01T12:31:26.740Z,27.82
2017-06-01T12:32:26.674Z,27.53
2017-06-01T12:33:26.314Z,27.34
2017-06-01T12:34:26.249Z,27.62
2017-06-01T12:35:26.491Z,27.04
2017-06-01T12:36:26.427Z,27.34
2017-06-01T12:37:26.368Z,27.72
2017-06-01T12:38:26.302Z,27.44
2017-06-01T12:39:25.956Z,27.44
2017-06-01T12:40:25.876Z,27.34
2017-06-01T12:41:26.117Z,27.34
2017-06-01T12:42:25.753Z,26.86
2017-06-01T12:43:25.993Z,26.76
2017-06-01T12:44:25.943Z,26.46
2017-06-01T12:45:25.873Z,26.46
2017-06-01T12:46:25.811Z,26.37
2017-06-01T12:47:25.746Z,26.28
2017-06-01T12:48:25.685Z,26.28
2017-06-01T12:49:25.320Z,26.18
2017-06-01T12:50:25.627Z,26.08
2017-06-01T12:51:25.509Z,26.28
2017-06-01T12:52:25.432Z,26.18
2017-06-01T12:53:25.373Z,25.89
2017-06-01T12:54:25.310Z,25.89
2017-06-01T12:55:25.248Z,25.89
2017-06-01T12:56:24.886Z,25.79